createdAt,value
2022-07-25T00:00:56.622Z,22.83
2022-07-25T00:01:57.123Z,22.84
2022-07-25T00:02:57.201Z,22.86
2022-07-25T00:03:57.482Z,22.87
2022-07-25T00:04:57.722Z,22.86
2022-07-25T00:05:58.017Z,22.86
2022-07-25T00:06:58.312Z,22.84
2022-07-25T00:07:58.663Z,22.80
2022-07-25T00:08:58.844Z,22.75
2022-07-25T00:09:59.159Z,22.69
2022-07-25T00:10:59.452Z,22.64
2022-07-25T00:11:59.757Z,22.56
2022-07-25T00:13:00.050Z,22.47
2022-07-25T00:14:00.347Z,22.44
2022-07-25T00:15:00.697Z,22.43
2022-07-25T00:16:01.047Z,22.44
2022-07-25T00:17:01.270Z,22.47
2022-07-25T00:18:01.599Z,22.50
2022-07-25T00:19:01.912Z,22.47
2022-07-25T00:20:02.204Z,22.34
2022-07-25T00:21:02.494Z,22.27
2022-07-25T00:22:02.764Z,22.23
2022-07-25T00:23:03.096Z,22.25
2022-07-25T00:24:03.917Z,22.28
2022-07-25T00:25:03.724Z,22.29
2022-07-25T00:26:04.029Z,22.37
2022-07-25T00:27:05.131Z,22.37
2022-07-25T00:28:04.632Z,22.38
2022-07-25T00:29:04.998Z,22.41
2022-07-25T00:30:05.176Z,22.39
2022-07-25T00:31:05.591Z,22.39
2022-07-25T00:32:05.808Z,22.39
2022-07-25T00:33:06.113Z,22.37
2022-07-25T00:34:06.753Z,22.37
2022-07-25T00:35:06.741Z,22.35
2022-07-25T00:36:07.017Z,22.29
2022-07-25T00:37:07.291Z,22.23
2022-07-25T00:38:07.569Z,22.22
2022-07-25T00:39:07.903Z,22.23
2022-07-25T00:40:08.187Z,22.20
2022-07-25T00:41:08.488Z,22.12
2022-07-25T00:42:08.794Z,22.09
2022-07-25T00:43:09.102Z,22.09
2022-07-25T00:44:09.749Z,22.10
2022-07-25T00:45:09.732Z,22.13
2022-07-25T00:46:09.964Z,22.14
2022-07-25T00:47:10.158Z,22.13
2022-07-25T00:48:10.441Z,22.07
2022-07-25T00:49:10.814Z,22.01
2022-07-25T00:50:11.133Z,21.98
2022-07-25T00:51:12.089Z,21.98
2022-07-25T00:52:11.573Z,21.99
2022-07-25T00:53:11.885Z,21.99
2022-07-25T02:56:43.853Z,20.30
2022-07-25T02:57:44.136Z,20.38
2022-07-25T02:58:44.414Z,20.41
2022-07-25T02:59:44.723Z,20.42
2022-07-25T03:00:45.027Z,20.38
2022-07-25T03:01:45.392Z,20.35
2022-07-25T03:02:45.605Z,20.43
2022-07-25T03:03:46.017Z,20.49
2022-07-25T03:04:46.230Z,20.56
2022-07-25T03:05:46.541Z,20.64
2022-07-25T03:06:46.874Z,20.69
2022-07-25T03:07:47.173Z,20.74
2022-07-25T03:08:47.517Z,20.76
2022-07-25T03:09:47.808Z,20.76
2022-07-25T03:10:48.125Z,20.74
2022-07-25T03:11:48.442Z,20.68
2022-07-25T03:12:48.726Z,20.58
2022-07-25T03:13:49.033Z,20.46
2022-07-25T03:14:49.242Z,20.34
2022-07-25T03:15:49.536Z,20.23
2022-07-25T03:16:49.882Z,20.12
2022-07-25T03:17:50.114Z,20.08
2022-07-25T03:18:50.448Z,20.10
2022-07-25T03:19:50.756Z,20.15
2022-07-25T03:20:51.044Z,20.21
2022-07-25T03:21:51.357Z,20.27
2022-07-25T03:22:51.646Z,20.38
2022-07-25T03:23:52.863Z,20.42
2022-07-25T03:24:52.242Z,20.49
2022-07-25T03:25:52.517Z,20.51
2022-07-25T03:26:52.825Z,20.54
2022-07-25T03:27:53.113Z,20.58
2022-07-25T03:28:53.442Z,20.62
2022-07-25T03:29:53.762Z,20.64
2022-07-25T03:30:54.066Z,20.61
2022-07-25T03:31:54.497Z,20.64
2022-07-25T03:32:54.627Z,20.62
2022-07-25T03:33:54.925Z,20.61
2022-07-25T03:34:55.224Z,20.62
2022-07-25T03:35:55.542Z,20.62
2022-07-25T03:36:55.846Z,20.62
2022-07-25T03:37:56.153Z,20.62
2022-07-25T03:38:56.437Z,20.61
2022-07-25T03:39:56.731Z,20.61
2022-07-25T03:40:57.055Z,20.62
2022-07-25T03:41:57.343Z,20.61
2022-07-25T03:42:57.648Z,20.62
2022-07-25T03:43:57.949Z,20.61
2022-07-25T03:44:58.270Z,20.59
2022-07-25T03:45:58.649Z,20.59
2022-07-25T03:46:58.856Z,20.59
2022-07-25T03:47:59.151Z,20.58
2022-07-25T03:48:59.519Z,20.58
2022-07-25T03:49:59.802Z,20.56
2022-07-25T03:51:03.559Z,20.56
2022-07-25T03:52:01.326Z,20.54
2022-07-25T03:53:00.552Z,20.53
2022-07-25T03:54:00.825Z,20.54
2022-07-25T03:55:01.123Z,20.54
2022-07-25T03:56:01.422Z,20.56
2022-07-25T03:57:01.751Z,20.58
2022-07-25T03:58:02.059Z,20.54
2022-07-25T03:59:02.348Z,20.54
2022-07-25T04:00:02.647Z,20.54
2022-07-25T04:01:03.016Z,20.54
2022-07-25T04:02:03.286Z,20.53
2022-07-25T04:03:03.507Z,20.51
2022-07-25T04:04:04.168Z,20.51
2022-07-25T04:05:04.089Z,20.50
2022-07-25T04:06:04.387Z,20.50
2022-07-25T04:07:04.695Z,20.49
2022-07-25T04:08:05.024Z,20.50
2022-07-25T04:09:05.328Z,20.49
2022-07-25T04:10:05.617Z,20.50
2022-07-25T04:11:05.921Z,20.50
2022-07-25T04:12:06.208Z,20.51
2022-07-25T04:13:06.548Z,20.50
2022-07-25T04:14:07.279Z,20.51
2022-07-25T04:15:07.150Z,20.53
2022-07-25T04:16:11.551Z,20.53
2022-07-25T04:17:08.807Z,20.51
2022-07-25T04:18:08.095Z,20.54
2022-07-25T04:19:08.627Z,20.54
2022-07-25T04:20:08.673Z,20.49
2022-07-25T04:21:08.994Z,20.46
2022-07-25T04:22:09.297Z,20.47
2022-07-25T04:23:09.584Z,20.49
2022-07-25T04:24:10.021Z,20.51
2022-07-25T04:25:10.186Z,20.49
2022-07-25T04:26:10.495Z,20.47
2022-07-25T04:27:10.801Z,20.39
2022-07-25T04:28:11.135Z,20.34
2022-07-25T04:29:11.451Z,20.31
2022-07-25T04:30:11.749Z,20.28
2022-07-25T04:31:12.178Z,20.31
2022-07-25T04:32:12.346Z,20.35
2022-07-25T04:33:12.596Z,20.41
2022-07-25T04:34:12.791Z,20.47
2022-07-25T04:35:13.096Z,20.50
2022-07-25T04:36:13.404Z,20.53
2022-07-25T04:37:13.692Z,20.59
2022-07-25T04:38:13.991Z,20.62
2022-07-25T04:39:14.300Z,20.66
2022-07-25T04:40:14.598Z,20.68
2022-07-25T04:41:14.902Z,20.69
2022-07-25T04:42:15.196Z,20.69
2022-07-25T04:43:15.489Z,20.69
2022-07-25T04:44:15.793Z,20.72
2022-07-25T04:45:17.699Z,20.77
2022-07-25T04:46:16.433Z,20.79
2022-07-25T04:47:16.722Z,20.81
2022-07-25T04:48:16.935Z,20.83
2022-07-25T04:49:17.385Z,20.86
2022-07-25T04:50:19.622Z,20.89
2022-07-25T04:51:17.778Z,20.90
2022-07-25T04:52:18.106Z,20.87
2022-07-25T04:53:18.390Z,20.87
2022-07-25T04:54:19.444Z,20.89
2022-07-25T04:55:18.916Z,20.90
2022-07-25T04:56:19.189Z,20.93
2022-07-25T04:57:19.507Z,20.96
2022-07-25T04:58:19.831Z,20.99
2022-07-25T04:59:20.130Z,21.01
2022-07-25T05:00:20.424Z,21.02
2022-07-25T05:01:20.791Z,21.02
2022-07-25T05:02:21.203Z,21.02
2022-07-25T05:03:21.304Z,21.02
2022-07-25T05:04:21.593Z,21.04
2022-07-25T05:05:22.373Z,21.06
2022-07-25T05:06:22.144Z,21.06
2022-07-25T05:07:22.437Z,21.09
2022-07-25T05:08:22.742Z,21.16
2022-07-25T05:09:23.050Z,21.19
2022-07-25T05:10:23.384Z,21.21
2022-07-25T05:11:23.667Z,21.23
2022-07-25T05:12:25.770Z,21.24
2022-07-25T05:13:24.289Z,21.24
2022-07-25T05:14:24.603Z,21.23
2022-07-25T05:15:24.954Z,21.21
2022-07-25T05:16:25.216Z,21.23
2022-07-25T05:17:25.438Z,21.26
2022-07-25T05:18:25.727Z,21.27
2022-07-25T05:19:26.045Z,21.29
2022-07-25T05:20:26.380Z,21.30
2022-07-25T05:21:26.688Z,21.34
2022-07-25T05:22:28.593Z,21.35
2022-07-25T05:23:27.255Z,21.38
2022-07-25T05:24:27.554Z,21.38
2022-07-25T05:25:27.857Z,21.39
2022-07-25T05:26:28.163Z,21.39
2022-07-25T05:27:28.474Z,21.38
2022-07-25T05:28:28.765Z,21.39
2022-07-25T05:29:29.067Z,21.39
2022-07-25T05:30:29.380Z,21.38
2022-07-25T05:31:29.772Z,21.38
2022-07-25T05:32:29.988Z,21.41
2022-07-25T05:33:30.286Z,21.42
2022-07-25T05:34:30.584Z,21.42
2022-07-25T05:35:30.916Z,21.44
2022-07-25T05:36:31.212Z,21.48
2022-07-25T05:37:31.480Z,21.50
2022-07-25T05:38:31.783Z,21.51
2022-07-25T05:39:32.097Z,21.59
2022-07-25T05:40:32.416Z,21.63
2022-07-25T05:41:32.765Z,21.64
2022-07-25T05:42:32.957Z,21.71
2022-07-25T05:43:33.292Z,21.74
2022-07-25T05:44:33.584Z,21.79
2022-07-25T05:45:33.928Z,21.90
2022-07-25T05:46:34.277Z,21.97
2022-07-25T05:47:34.493Z,22.04
2022-07-25T05:48:34.923Z,22.13
2022-07-25T05:49:35.037Z,22.20
2022-07-25T05:50:35.336Z,22.25
2022-07-25T05:51:35.614Z,22.31
2022-07-25T05:52:35.909Z,22.35
2022-07-25T05:53:36.206Z,22.37
2022-07-25T05:54:36.495Z,22.41
2022-07-25T05:55:40.728Z,22.46
2022-07-25T05:56:37.157Z,22.50
2022-07-25T05:57:37.370Z,22.53
2022-07-25T05:58:37.688Z,22.60
2022-07-25T05:59:37.972Z,22.68
2022-07-25T06:00:38.261Z,22.75
2022-07-25T06:01:38.592Z,22.84
2022-07-25T06:02:39.091Z,22.89
2022-07-25T06:03:39.131Z,22.96
2022-07-25T06:04:39.435Z,23.04
2022-07-25T06:05:39.773Z,23.09
2022-07-25T06:06:40.057Z,23.15
2022-07-25T06:07:40.367Z,23.24
2022-07-25T06:08:40.655Z,23.29
2022-07-25T06:09:40.938Z,23.34
2022-07-25T06:10:41.272Z,23.39
2022-07-25T06:11:54.677Z,23.43
2022-07-25T06:12:43.653Z,23.38
2022-07-25T06:13:42.148Z,23.35
2022-07-25T06:14:42.496Z,23.39
2022-07-25T06:15:42.749Z,23.40
2022-07-25T06:16:43.136Z,23.45
2022-07-25T06:17:43.346Z,23.47
2022-07-25T06:18:43.665Z,23.53
2022-07-25T06:19:44.166Z,23.60
2022-07-25T06:20:44.218Z,23.64
2022-07-25T06:21:44.531Z,23.65
2022-07-25T06:22:44.829Z,23.67
2022-07-25T06:23:45.127Z,23.75
2022-07-25T06:24:45.411Z,23.70
2022-07-25T06:25:50.484Z,23.60
2022-07-25T06:26:47.016Z,23.53
2022-07-25T06:27:46.257Z,23.47
2022-07-25T06:28:46.556Z,23.47
2022-07-25T06:29:46.880Z,23.50
2022-07-25T06:30:47.178Z,23.55
2022-07-25T06:31:47.689Z,23.61
2022-07-25T06:32:47.710Z,23.64
2022-07-25T06:33:48.007Z,23.65
2022-07-25T06:34:48.296Z,23.68
2022-07-25T06:35:48.576Z,23.64
2022-07-25T06:36:48.903Z,23.62
2022-07-25T06:37:49.214Z,23.61
2022-07-25T06:38:49.490Z,23.67
2022-07-25T06:39:51.529Z,23.70
2022-07-25T06:40:50.032Z,23.76
2022-07-25T06:41:50.336Z,23.75
2022-07-25T06:42:51.450Z,23.76
2022-07-25T06:43:50.918Z,23.82
2022-07-25T06:44:51.218Z,23.82
2022-07-25T06:45:51.534Z,23.79
2022-07-25T06:46:51.903Z,23.72
2022-07-25T06:47:52.126Z,23.70
2022-07-25T06:48:52.437Z,23.65
2022-07-25T06:49:52.742Z,23.65
2022-07-25T06:50:53.017Z,23.70
2022-07-25T06:51:53.306Z,23.75
2022-07-25T06:52:53.610Z,23.80
2022-07-25T06:53:53.887Z,23.90
2022-07-25T06:54:54.181Z,23.98
2022-07-25T06:55:54.496Z,24.07
2022-07-25T06:56:54.794Z,24.12
2022-07-25T06:57:55.098Z,24.17
2022-07-25T06:58:55.375Z,24.17
2022-07-25T06:59:55.675Z,24.19
2022-07-25T07:00:56.085Z,24.22
2022-07-25T07:01:56.257Z,24.26
2022-07-25T07:02:56.573Z,24.31
2022-07-25T07:03:56.829Z,24.38
2022-07-25T07:04:57.137Z,24.45
2022-07-25T07:05:57.435Z,24.50
2022-07-25T07:06:57.745Z,24.53
2022-07-25T07:07:58.064Z,24.56
2022-07-25T07:08:58.354Z,24.56
2022-07-25T07:09:58.609Z,24.63
2022-07-25T07:10:58.878Z,24.68
2022-07-25T07:11:59.171Z,24.71
2022-07-25T07:12:59.460Z,24.77
2022-07-25T07:13:59.774Z,24.82
2022-07-25T07:15:00.067Z,24.79
2022-07-25T07:16:00.420Z,24.79
2022-07-25T07:17:00.610Z,24.77
2022-07-25T07:18:00.897Z,24.71
2022-07-25T07:19:01.211Z,24.67
2022-07-25T07:20:01.499Z,24.63
2022-07-25T07:21:01.795Z,24.64
2022-07-25T07:22:02.082Z,24.69
2022-07-25T07:23:02.445Z,24.73
2022-07-25T07:24:02.769Z,24.73
2022-07-25T07:25:03.056Z,24.82
2022-07-25T07:26:03.355Z,24.83
2022-07-25T07:27:03.655Z,24.85
2022-07-25T07:28:03.962Z,24.85
2022-07-25T07:29:04.544Z,24.79
2022-07-25T07:30:04.597Z,24.77
2022-07-25T07:31:20.558Z,24.75
2022-07-25T07:32:06.271Z,24.71
2022-07-25T07:33:05.519Z,24.67
2022-07-25T07:34:05.850Z,24.63
2022-07-25T07:35:06.144Z,24.60
2022-07-25T07:36:06.422Z,24.61
2022-07-25T07:37:06.710Z,24.63
2022-07-25T07:38:07.014Z,24.64
2022-07-25T07:39:07.651Z,24.61
2022-07-25T07:40:07.672Z,24.61
2022-07-25T07:41:08.973Z,24.64
2022-07-25T07:42:08.210Z,24.67
2022-07-25T07:43:08.507Z,24.73
2022-07-25T07:44:08.806Z,24.75
2022-07-25T07:45:09.104Z,24.79
2022-07-25T07:46:09.499Z,24.83
2022-07-25T07:47:14.503Z,24.88
2022-07-25T07:48:10.993Z,24.90
2022-07-25T07:49:10.950Z,24.94
2022-07-25T07:50:10.551Z,25.01
2022-07-25T07:51:10.845Z,25.07
2022-07-25T07:52:11.184Z,25.12
2022-07-25T07:53:11.478Z,25.13
2022-07-25T07:54:11.766Z,25.16
2022-07-25T07:55:12.040Z,25.22
2022-07-25T07:56:12.370Z,25.24
2022-07-25T07:57:12.576Z,25.27
2022-07-25T07:58:12.880Z,25.30
2022-07-25T07:59:13.220Z,25.34
2022-07-25T08:00:16.533Z,25.35
2022-07-25T08:01:13.731Z,25.39
2022-07-25T08:02:14.054Z,25.38
2022-07-25T08:03:14.282Z,25.37
2022-07-25T08:04:14.511Z,25.30
2022-07-25T08:05:14.830Z,25.31
2022-07-25T08:06:15.118Z,25.30
2022-07-25T08:07:16.278Z,25.28
2022-07-25T08:08:15.644Z,25.30
2022-07-25T08:09:15.958Z,25.28
2022-07-25T08:10:16.227Z,25.34
2022-07-25T08:11:16.534Z,25.38
2022-07-25T08:12:16.813Z,25.46
2022-07-25T08:13:17.148Z,25.54
2022-07-25T08:14:17.444Z,25.61
2022-07-25T08:15:17.738Z,25.61
2022-07-25T08:16:18.062Z,25.65
2022-07-25T08:17:18.301Z,25.71
2022-07-25T08:18:18.590Z,25.74
2022-07-25T08:19:18.877Z,25.71
2022-07-25T08:20:37.577Z,25.74
2022-07-25T08:21:20.466Z,25.77
2022-07-25T08:22:19.733Z,25.83
2022-07-25T08:23:20.030Z,25.91
2022-07-25T08:24:20.369Z,25.98
2022-07-25T08:25:20.552Z,26.01
2022-07-25T08:26:20.841Z,26.05
2022-07-25T08:27:21.104Z,26.11
2022-07-25T08:28:21.449Z,26.09
2022-07-25T08:29:26.341Z,26.12
2022-07-25T08:30:22.912Z,26.20
2022-07-25T08:31:22.278Z,26.24
2022-07-25T08:32:22.471Z,26.27
2022-07-25T08:33:22.799Z,26.25
2022-07-25T08:34:23.120Z,26.27
2022-07-25T08:35:23.424Z,26.22
2022-07-25T08:36:23.721Z,26.12
2022-07-25T08:37:24.040Z,26.12
2022-07-25T08:38:24.338Z,26.20
2022-07-25T08:39:24.697Z,26.22
2022-07-25T08:40:24.864Z,26.24
2022-07-25T08:41:26.056Z,26.22
2022-07-25T08:42:25.391Z,26.24
2022-07-25T08:43:25.713Z,26.21
2022-07-25T08:44:25.987Z,26.18
2022-07-25T08:45:26.176Z,26.24
2022-07-25T08:46:26.546Z,26.35
2022-07-25T08:47:26.734Z,26.47
2022-07-25T08:48:27.168Z,26.58
2022-07-25T08:49:27.320Z,26.67
2022-07-25T08:50:27.633Z,26.73
2022-07-25T08:51:27.937Z,26.67
2022-07-25T08:52:28.262Z,26.72
2022-07-25T08:53:33.537Z,26.72
2022-07-25T08:54:29.854Z,26.69
2022-07-25T08:55:29.083Z,26.72
2022-07-25T08:56:29.349Z,26.79
2022-07-25T08:57:29.659Z,26.87
2022-07-25T08:58:29.956Z,26.95
2022-07-25T08:59:30.235Z,27.02
2022-07-25T09:00:30.532Z,27.11
2022-07-25T09:01:34.701Z,27.16
2022-07-25T09:02:31.237Z,27.13
2022-07-25T09:03:31.445Z,27.16
2022-07-25T09:04:31.724Z,27.24
2022-07-25T09:05:32.080Z,27.36
2022-07-25T09:06:32.262Z,27.48
2022-07-25T09:07:32.583Z,27.61
2022-07-25T09:08:32.877Z,27.76
2022-07-25T09:09:33.165Z,27.80
2022-07-25T09:10:33.479Z,27.89
2022-07-25T09:11:33.772Z,27.98
2022-07-25T09:12:34.086Z,28.07
2022-07-25T09:13:34.415Z,28.19
2022-07-25T09:14:34.713Z,28.31
2022-07-25T09:15:35.067Z,28.40
2022-07-25T09:16:35.225Z,28.35
2022-07-25T09:17:35.514Z,28.44
2022-07-25T09:18:35.797Z,28.53
2022-07-25T09:19:36.096Z,28.62
2022-07-25T09:20:36.404Z,28.77
2022-07-25T09:21:36.694Z,28.84
2022-07-25T09:22:36.950Z,28.95
2022-07-25T09:23:37.224Z,29.06
2022-07-25T09:24:37.533Z,29.16
2022-07-25T09:25:37.811Z,29.19
2022-07-25T09:26:38.089Z,29.22
2022-07-25T09:27:38.348Z,29.33
2022-07-25T09:28:38.635Z,29.45
2022-07-25T09:29:38.924Z,29.59
2022-07-25T09:30:39.218Z,29.72
2022-07-25T09:31:39.559Z,29.71
2022-07-25T09:32:39.830Z,29.68
2022-07-25T09:33:40.119Z,29.77
2022-07-25T09:34:40.418Z,29.92
2022-07-25T09:35:41.879Z,30.07
2022-07-25T09:36:41.033Z,30.19
2022-07-25T09:37:41.314Z,30.36
2022-07-25T09:38:41.596Z,30.37
2022-07-25T09:39:45.922Z,30.38
2022-07-25T09:40:42.188Z,30.46
2022-07-25T09:41:42.487Z,30.57
2022-07-25T09:42:42.795Z,30.68
2022-07-25T09:43:43.068Z,30.72
2022-07-25T09:44:43.379Z,30.64
2022-07-25T09:45:43.736Z,30.72
2022-07-25T09:46:43.993Z,30.84
2022-07-25T09:47:44.217Z,30.90
2022-07-25T09:48:44.617Z,31.02
2022-07-25T09:49:44.847Z,31.13
2022-07-25T09:50:45.179Z,31.15
2022-07-25T09:51:45.474Z,31.17
2022-07-25T09:52:45.771Z,31.28
2022-07-25T09:53:46.069Z,31.39
2022-07-25T09:54:46.360Z,31.40
2022-07-25T09:55:46.692Z,31.54
2022-07-25T09:56:46.990Z,31.68
2022-07-25T09:57:47.300Z,31.60
2022-07-25T09:58:47.576Z,31.65
2022-07-25T09:59:47.846Z,31.70
2022-07-25T10:00:48.164Z,31.77
2022-07-25T10:01:48.558Z,31.98
2022-07-25T10:02:48.963Z,32.11
2022-07-25T10:03:49.053Z,32.24
2022-07-25T10:04:49.328Z,31.99
2022-07-25T10:05:49.652Z,31.92
2022-07-25T10:06:49.952Z,32.03
2022-07-25T10:07:50.279Z,31.99
2022-07-25T10:08:50.740Z,32.17
2022-07-25T10:09:50.862Z,32.36
2022-07-25T10:10:51.169Z,32.35
2022-07-25T10:11:51.484Z,32.24
2022-07-25T10:12:51.779Z,32.18
2022-07-25T10:13:52.080Z,32.32
2022-07-25T10:14:52.383Z,32.32
2022-07-25T10:15:52.713Z,32.48
2022-07-25T10:16:53.086Z,32.49
2022-07-25T10:17:53.249Z,32.48
2022-07-25T10:18:53.552Z,32.51
2022-07-25T10:19:58.559Z,32.59
2022-07-25T10:20:55.290Z,32.76
2022-07-25T10:21:54.400Z,32.95
2022-07-25T10:22:56.712Z,33.07
2022-07-25T10:23:54.995Z,33.03
2022-07-25T10:24:55.307Z,32.84
2022-07-25T10:25:55.639Z,32.95
2022-07-25T10:26:55.933Z,33.22
2022-07-25T10:27:56.241Z,33.48
2022-07-25T10:28:56.590Z,33.49
2022-07-25T10:29:56.877Z,33.57
2022-07-25T10:30:57.230Z,33.53
2022-07-25T10:31:57.487Z,33.64
2022-07-25T10:32:57.829Z,33.43
2022-07-25T10:33:58.097Z,33.13
2022-07-25T10:34:58.326Z,32.77
2022-07-25T10:35:58.644Z,32.69
2022-07-25T10:36:58.964Z,32.84
2022-07-25T10:37:59.257Z,33.13
2022-07-25T10:38:59.556Z,33.33
2022-07-25T10:39:59.883Z,33.52
2022-07-25T10:41:00.166Z,33.82
2022-07-25T10:42:00.467Z,34.01
2022-07-25T10:43:00.769Z,34.02
2022-07-25T10:44:01.059Z,33.64
2022-07-25T10:45:01.387Z,33.20
2022-07-25T10:46:01.821Z,33.23
2022-07-25T10:47:02.030Z,32.62
2022-07-25T10:48:02.327Z,32.44
2022-07-25T10:49:02.664Z,32.52
2022-07-25T10:51:04.196Z,33.07
2022-07-25T10:52:03.438Z,33.51
2022-07-25T10:53:03.734Z,33.87
2022-07-25T10:54:04.023Z,33.97
2022-07-25T10:55:04.366Z,33.45
2022-07-25T10:56:06.664Z,33.14
2022-07-25T10:57:04.920Z,33.10
2022-07-25T10:58:17.754Z,33.08
2022-07-25T10:59:06.905Z,33.19
2022-07-25T11:00:05.779Z,33.29
2022-07-25T11:01:06.102Z,33.36
2022-07-25T11:02:06.332Z,33.41
2022-07-25T11:03:06.539Z,33.43
2022-07-25T11:04:06.853Z,33.80
2022-07-25T11:05:07.177Z,34.08
2022-07-25T11:06:07.449Z,33.95
2022-07-25T11:07:07.740Z,34.26
2022-07-25T11:08:23.400Z,34.42
2022-07-25T11:09:10.163Z,34.72
2022-07-25T11:10:08.713Z,34.42
2022-07-25T11:11:08.912Z,34.35
2022-07-25T11:12:09.181Z,34.19
2022-07-25T11:13:09.454Z,33.83
2022-07-25T11:14:09.736Z,33.42
2022-07-25T11:15:12.322Z,33.51
2022-07-25T11:16:11.306Z,33.83
2022-07-25T11:17:10.737Z,34.09
2022-07-25T11:18:10.952Z,34.29
2022-07-25T11:19:11.270Z,34.53
2022-07-25T11:20:11.573Z,34.54
2022-07-25T11:21:11.857Z,34.16
2022-07-25T11:22:12.151Z,33.95
2022-07-25T11:23:12.455Z,33.97
2022-07-25T11:24:12.759Z,34.19
2022-07-25T11:25:13.063Z,34.09
2022-07-25T11:26:13.366Z,34.27
2022-07-25T11:27:13.669Z,34.36
2022-07-25T11:28:13.957Z,34.48
2022-07-25T11:29:14.231Z,34.63
2022-07-25T11:30:14.556Z,34.98
2022-07-25T11:31:14.950Z,35.13
2022-07-25T11:32:15.252Z,34.98
2022-07-25T11:33:17.519Z,34.92
2022-07-25T11:34:15.798Z,34.92
2022-07-25T11:35:16.118Z,34.88
2022-07-25T11:36:16.336Z,34.60
2022-07-25T11:37:16.725Z,34.41
2022-07-25T11:38:16.928Z,34.22
2022-07-25T11:39:38.259Z,33.90
2022-07-25T11:40:17.462Z,34.02
2022-07-25T11:41:17.732Z,34.05
2022-07-25T11:42:18.017Z,34.04
2022-07-25T11:43:18.344Z,34.09
2022-07-25T11:44:18.502Z,34.27
2022-07-25T11:45:18.792Z,34.61
2022-07-25T11:46:19.103Z,34.80
2022-07-25T11:47:19.357Z,35.02
2022-07-25T11:48:19.678Z,35.25
2022-07-25T11:49:20.083Z,34.98
2022-07-25T11:50:20.299Z,35.03
2022-07-25T11:51:20.586Z,35.25
2022-07-25T11:52:20.876Z,35.47
2022-07-25T11:53:21.188Z,35.37
2022-07-25T11:54:21.487Z,35.30
2022-07-25T11:55:21.807Z,35.37
2022-07-25T11:57:23.390Z,35.62
2022-07-25T11:58:22.738Z,35.81
2022-07-25T11:59:23.034Z,35.62
2022-07-25T12:00:23.375Z,35.47
2022-07-25T12:01:23.557Z,35.39
2022-07-25T12:02:24.082Z,35.45
2022-07-25T12:03:24.147Z,35.42
2022-07-25T12:04:24.388Z,35.15
2022-07-25T12:05:24.716Z,35.13
2022-07-25T12:06:25.005Z,35.55
2022-07-25T12:07:25.288Z,36.06
2022-07-25T12:08:25.602Z,36.31
2022-07-25T12:09:25.921Z,36.33
2022-07-25T12:10:26.211Z,36.08
2022-07-25T12:11:28.302Z,36.03
2022-07-25T12:12:26.823Z,36.01
2022-07-25T12:13:27.137Z,36.11
2022-07-25T12:14:30.103Z,36.20
2022-07-25T12:15:27.722Z,36.07
2022-07-25T12:16:28.027Z,36.23
2022-07-25T12:17:28.236Z,36.52
2022-07-25T12:18:28.563Z,36.68
2022-07-25T12:19:28.886Z,36.65
2022-07-25T12:20:30.062Z,36.82
2022-07-25T12:21:29.395Z,36.63
2022-07-25T12:22:29.697Z,36.75
2022-07-25T12:23:29.994Z,36.61
2022-07-25T12:24:30.289Z,36.65
2022-07-25T12:25:31.215Z,36.14
2022-07-25T12:26:30.870Z,35.55
2022-07-25T12:27:31.257Z,35.66
2022-07-25T12:28:31.442Z,35.48
2022-07-25T12:29:31.781Z,35.29
2022-07-25T12:30:32.181Z,35.37
2022-07-25T12:31:32.433Z,35.48
2022-07-25T12:32:32.726Z,35.74
2022-07-25T12:33:32.995Z,36.03
2022-07-25T12:34:33.305Z,36.38
2022-07-25T12:35:33.600Z,36.51
2022-07-25T12:36:33.862Z,36.70
2022-07-25T12:37:34.204Z,36.76
2022-07-25T12:38:34.493Z,36.85
2022-07-25T12:39:34.772Z,36.92
2022-07-25T12:40:35.051Z,37.04
2022-07-25T12:41:35.344Z,37.32
2022-07-25T12:42:35.652Z,37.48
2022-07-25T12:43:35.936Z,37.66
2022-07-25T12:44:36.224Z,37.54
2022-07-25T12:45:36.590Z,37.10
2022-07-25T12:46:36.777Z,37.10
2022-07-25T12:47:37.060Z,36.72
2022-07-25T12:48:37.379Z,36.27
2022-07-25T12:49:37.599Z,35.88
2022-07-25T12:50:37.914Z,36.00
2022-07-25T12:51:38.203Z,36.20
2022-07-25T12:52:38.477Z,36.48
2022-07-25T12:53:42.214Z,36.82
2022-07-25T12:54:39.114Z,37.16
2022-07-25T12:55:39.372Z,37.33
2022-07-25T12:56:39.647Z,37.23
2022-07-25T12:57:39.944Z,37.14
2022-07-25T12:58:40.268Z,36.79
2022-07-25T12:59:40.576Z,36.43
2022-07-25T13:00:40.883Z,36.29
2022-07-25T13:01:41.278Z,36.33
2022-07-25T13:02:41.576Z,35.92
2022-07-25T13:03:41.786Z,35.92
2022-07-25T13:04:42.054Z,35.97
2022-07-25T13:05:42.311Z,36.06
2022-07-25T13:06:42.617Z,36.27
2022-07-25T13:07:42.915Z,36.49
2022-07-25T13:08:43.193Z,36.06
2022-07-25T13:09:43.446Z,36.15
2022-07-25T13:10:43.715Z,36.23
2022-07-25T13:11:44.062Z,36.35
2022-07-25T13:12:44.362Z,36.39
2022-07-25T13:13:44.663Z,36.30
2022-07-25T13:14:44.964Z,35.95
2022-07-25T13:15:45.279Z,35.70
2022-07-25T13:16:45.645Z,35.81
2022-07-25T13:17:45.850Z,36.04
2022-07-25T13:18:46.108Z,36.26
2022-07-25T13:19:46.370Z,36.48
2022-07-25T13:20:46.639Z,36.64
2022-07-25T13:21:46.943Z,36.94
2022-07-25T13:22:47.234Z,37.29
2022-07-25T13:23:47.537Z,37.64
2022-07-25T13:24:47.804Z,37.66
2022-07-25T13:25:48.206Z,37.64
2022-07-25T13:26:48.481Z,37.71
2022-07-25T13:27:48.754Z,37.71
2022-07-25T13:28:49.073Z,37.76
2022-07-25T13:29:49.357Z,37.61
2022-07-25T13:30:49.670Z,37.32
2022-07-25T13:31:50.010Z,37.19
2022-07-25T13:32:50.247Z,37.26
2022-07-25T13:33:50.555Z,37.61
2022-07-25T13:34:50.863Z,37.81
2022-07-25T13:35:51.210Z,38.08
2022-07-25T13:36:51.441Z,38.20
2022-07-25T13:37:51.726Z,38.32
2022-07-25T13:38:51.998Z,38.20
2022-07-25T13:39:52.302Z,38.26
2022-07-25T13:40:58.421Z,38.34
2022-07-25T13:41:53.902Z,38.38
2022-07-25T13:42:53.132Z,38.14
2022-07-25T13:43:53.425Z,38.20
2022-07-25T13:44:53.738Z,38.07
2022-07-25T13:45:54.067Z,37.93
2022-07-25T13:46:54.316Z,38.01
2022-07-25T13:48:18.968Z,38.26
2022-07-25T13:48:55.961Z,38.52
2022-07-25T13:49:55.227Z,38.63
2022-07-25T13:50:55.526Z,38.67
2022-07-25T13:51:55.801Z,38.64
2022-07-25T13:52:56.107Z,38.66
2022-07-25T13:53:56.431Z,38.63
2022-07-25T13:54:56.749Z,38.70
2022-07-25T13:55:57.034Z,38.83
2022-07-25T13:56:57.372Z,38.98
2022-07-25T13:57:57.665Z,39.06
2022-07-25T13:58:57.939Z,38.89
2022-07-25T13:59:58.222Z,38.89
2022-07-25T14:00:58.521Z,38.83
2022-07-25T14:01:59.846Z,38.80
2022-07-25T14:02:59.099Z,38.78
2022-07-25T14:03:59.392Z,38.82
2022-07-25T14:05:03.770Z,39.01
2022-07-25T14:06:00.009Z,39.14
2022-07-25T14:07:00.339Z,39.27
2022-07-25T14:08:00.632Z,39.46
2022-07-25T14:09:00.970Z,39.65
2022-07-25T14:10:01.208Z,39.67
2022-07-25T14:11:01.390Z,39.61
2022-07-25T14:12:01.654Z,39.56
2022-07-25T14:13:01.913Z,39.59
2022-07-25T14:14:02.220Z,39.47
2022-07-25T14:15:02.510Z,39.33
2022-07-25T14:16:02.813Z,39.21
2022-07-25T14:17:03.149Z,39.15
2022-07-25T14:18:03.376Z,38.99
2022-07-25T14:19:03.836Z,38.83
2022-07-25T14:20:03.896Z,38.57
2022-07-25T14:21:04.190Z,38.80
2022-07-25T14:22:04.484Z,38.98
2022-07-25T14:23:04.806Z,39.02
2022-07-25T14:24:05.105Z,38.80
2022-07-25T14:25:05.389Z,38.95
2022-07-25T14:26:05.647Z,39.01
2022-07-25T14:27:05.921Z,39.02
2022-07-25T14:28:06.215Z,39.09
2022-07-25T14:29:06.864Z,39.06
2022-07-25T14:30:06.791Z,38.89
2022-07-25T14:31:07.146Z,38.58
2022-07-25T14:32:07.428Z,38.42
2022-07-25T14:33:07.713Z,38.46
2022-07-25T14:34:08.047Z,38.51
2022-07-25T14:35:08.335Z,38.53
2022-07-25T14:36:08.633Z,38.60
2022-07-25T14:37:08.956Z,38.66
2022-07-25T14:38:09.262Z,38.73
2022-07-25T14:39:10.042Z,38.86
2022-07-25T14:40:09.843Z,39.09
2022-07-25T14:41:13.043Z,39.25
2022-07-25T14:42:10.345Z,39.36
2022-07-25T14:43:10.606Z,39.47
2022-07-25T14:44:10.886Z,39.55
2022-07-25T14:45:11.180Z,39.58
2022-07-25T14:46:11.510Z,39.71
2022-07-25T14:47:12.746Z,40.00
2022-07-25T14:48:12.160Z,40.26
2022-07-25T14:49:12.621Z,40.27
2022-07-25T14:50:12.722Z,40.02
2022-07-25T14:51:13.013Z,39.58
2022-07-25T14:52:13.294Z,39.49
2022-07-25T14:53:13.608Z,39.30
2022-07-25T14:54:13.926Z,39.36
2022-07-25T14:55:14.228Z,39.15
2022-07-25T14:56:14.519Z,38.82
2022-07-25T14:57:14.812Z,38.34
2022-07-25T14:58:15.106Z,37.61
2022-07-25T14:59:15.404Z,37.31
2022-07-25T15:00:15.718Z,37.01
2022-07-25T15:01:16.151Z,36.86